createdAt,value
2023-01-08T00:00:20.477Z,959.33
2023-01-08T00:00:39.148Z,959.33
2023-01-08T00:01:10.023Z,959.13
2023-01-08T00:01:42.024Z,959.13
2023-01-08T00:02:12.065Z,959.33
2023-01-08T00:02:43.108Z,959.33
2023-01-08T00:03:14.120Z,959.23
2023-01-08T00:03:45.244Z,959.23
2023-01-08T00:04:16.095Z,959.23
2023-01-08T00:04:46.989Z,959.23
2023-01-08T00:05:18.007Z,959.02
2023-01-08T00:05:48.998Z,959.02
2023-01-08T00:06:20.115Z,959.13
2023-01-08T00:06:52.056Z,959.13
2023-01-08T00:07:22.004Z,959.23
2023-01-08T00:07:53.064Z,959.23
2023-01-08T00:08:24.080Z,959.23
2023-01-08T00:08:55.052Z,959.23
2023-01-08T00:09:26.038Z,959.33
2023-01-08T00:09:57.002Z,959.33
2023-01-08T00:10:28.014Z,959.23
2023-01-08T00:10:59.017Z,959.23
2023-01-08T00:11:30.029Z,959.23
2023-01-08T00:12:32.006Z,959.13
2023-01-08T00:13:03.107Z,959.13
2023-01-08T00:13:33.992Z,959.13
2023-01-08T00:14:05.140Z,959.33
2023-01-08T00:14:36.117Z,959.33
2023-01-08T00:15:19.408Z,959.13
2023-01-08T00:15:38.061Z,959.13
2023-01-08T00:16:09.135Z,959.02
2023-01-08T00:16:40.078Z,959.02
2023-01-08T00:17:12.029Z,959.23
2023-01-08T00:17:42.222Z,959.23
2023-01-08T00:18:13.015Z,959.02
2023-01-08T00:18:44.006Z,959.02
2023-01-08T00:19:14.989Z,959.13
2023-01-08T00:19:46.083Z,959.13
2023-01-08T00:20:17.074Z,959.02
2023-01-08T00:20:48.018Z,959.02
2023-01-08T00:21:18.992Z,959.02
2023-01-08T00:21:50.156Z,959.02
2023-01-08T00:22:21.994Z,959.02
2023-01-08T00:22:52.009Z,959.02
2023-01-08T00:23:23.016Z,958.92
2023-01-08T00:23:54.006Z,958.92
2023-01-08T00:24:25.031Z,958.72
2023-01-08T00:24:55.990Z,958.72
2023-01-08T00:25:26.985Z,958.92
2023-01-08T00:25:57.996Z,958.92
2023-01-08T00:26:28.986Z,958.92
2023-01-08T00:27:00.011Z,958.92
2023-01-08T00:27:32.003Z,959.02
2023-01-08T00:28:02.099Z,959.02
2023-01-08T00:28:33.005Z,959.02
2023-01-08T00:29:04.054Z,958.82
2023-01-08T00:29:35.178Z,958.82
2023-01-08T00:30:18.394Z,959.02
2023-01-08T00:30:37.090Z,959.02
2023-01-08T00:31:08.188Z,958.92
2023-01-08T00:31:39.025Z,958.92
2023-01-08T00:32:10.056Z,959.02
2023-01-08T00:32:42.021Z,959.02
2023-01-08T00:33:12.000Z,958.92
2023-01-08T00:33:43.008Z,958.92
2023-01-08T00:34:14.031Z,958.82
2023-01-08T00:34:44.996Z,958.82
2023-01-08T00:35:15.981Z,959.02
2023-01-08T00:35:47.001Z,959.02
2023-01-08T00:36:18.020Z,958.62
2023-01-08T00:36:49.039Z,958.62
2023-01-08T00:37:20.041Z,958.92
2023-01-08T00:37:52.016Z,958.92
2023-01-08T00:38:22.010Z,958.92
2023-01-08T00:38:53.063Z,958.92
2023-01-08T00:39:23.999Z,958.82
2023-01-08T00:39:55.034Z,958.82
2023-01-08T00:40:26.005Z,958.82
2023-01-08T00:40:57.164Z,958.82
2023-01-08T00:41:28.003Z,958.72
2023-01-08T00:41:59.000Z,958.72
2023-01-08T00:42:30.014Z,958.82
2023-01-08T00:43:31.994Z,958.82
2023-01-08T00:44:03.030Z,958.82
2023-01-08T00:44:33.984Z,958.82
2023-01-08T00:45:17.355Z,958.92
2023-01-08T00:45:36.141Z,958.92
2023-01-08T00:46:07.141Z,958.52
2023-01-08T00:46:38.079Z,958.52
2023-01-08T00:47:08.978Z,958.72
2023-01-08T00:47:39.984Z,958.72
2023-01-08T00:48:11.988Z,958.62
2023-01-08T00:48:42.008Z,958.62
2023-01-08T00:49:12.979Z,958.62
2023-01-08T00:49:44.030Z,958.62
2023-01-08T00:50:15.067Z,958.72
2023-01-08T00:50:45.988Z,958.72
2023-01-08T00:51:17.027Z,958.92
2023-01-08T00:51:47.976Z,958.92
2023-01-08T00:52:19.033Z,958.92
2023-01-08T00:52:50.052Z,958.92
2023-01-08T00:53:22.011Z,958.82
2023-01-08T00:53:52.042Z,958.82
2023-01-08T00:54:22.983Z,959.02
2023-01-08T00:54:54.047Z,959.02
2023-01-08T00:55:24.981Z,959.02
2023-01-08T00:55:56.056Z,959.02
2023-01-08T00:56:27.003Z,959.02
2023-01-08T00:56:57.989Z,959.02
2023-01-08T00:57:28.965Z,959.02
2023-01-08T00:58:00.072Z,959.02
2023-01-08T00:58:32.067Z,959.02
2023-01-08T00:59:02.125Z,959.02
2023-01-08T00:59:32.992Z,959.02
2023-01-08T01:00:16.297Z,958.92
2023-01-08T01:00:35.047Z,958.92
2023-01-08T01:01:06.104Z,958.82
2023-01-08T01:01:37.140Z,958.82
2023-01-08T01:02:08.225Z,959.02
2023-01-08T01:02:38.981Z,959.02
2023-01-08T01:03:09.994Z,959.02
2023-01-08T01:03:42.188Z,959.02
2023-01-08T01:04:12.303Z,958.82
2023-01-08T01:04:43.089Z,958.82
2023-01-08T01:05:14.030Z,958.62
2023-01-08T01:05:44.981Z,958.62
2023-01-08T01:06:16.017Z,958.62
2023-01-08T01:06:47.081Z,958.62
2023-01-08T01:07:18.046Z,958.62
2023-01-08T01:07:48.981Z,958.62
2023-01-08T01:08:19.985Z,958.62
2023-01-08T01:08:51.998Z,958.62
2023-01-08T01:09:22.009Z,958.41
2023-01-08T01:09:53.063Z,958.41
2023-01-08T01:10:24.019Z,958.41
2023-01-08T01:10:55.032Z,958.41
2023-01-08T01:11:25.981Z,958.41
2023-01-08T01:11:57.007Z,958.41
2023-01-08T01:12:27.983Z,958.62
2023-01-08T01:12:58.981Z,958.62
2023-01-08T01:13:29.984Z,958.52
2023-01-08T01:14:31.976Z,958.41
2023-01-08T01:15:15.375Z,958.52
2023-01-08T01:15:33.991Z,958.52
2023-01-08T01:16:05.020Z,958.52
2023-01-08T01:16:36.069Z,958.52
2023-01-08T01:17:07.050Z,958.21
2023-01-08T01:17:37.990Z,958.21
2023-01-08T01:18:09.057Z,958.62
2023-01-08T01:18:39.981Z,958.62
2023-01-08T01:19:12.025Z,958.41
2023-01-08T01:19:42.018Z,958.41
2023-01-08T01:20:13.017Z,958.52
2023-01-08T01:20:43.980Z,958.52
2023-01-08T01:21:15.047Z,958.62
2023-01-08T01:21:46.102Z,958.62
2023-01-08T01:22:17.015Z,958.62
2023-01-08T01:22:47.977Z,958.62
2023-01-08T01:23:18.971Z,958.41
2023-01-08T01:23:50.085Z,958.41
2023-01-08T01:24:22.022Z,958.41
2023-01-08T01:24:52.055Z,958.41
2023-01-08T01:25:22.997Z,958.41
2023-01-08T01:25:54.025Z,958.41
2023-01-08T01:26:25.003Z,958.31
2023-01-08T01:26:56.123Z,958.31
2023-01-08T01:27:27.079Z,958.52
2023-01-08T01:27:58.004Z,958.52
2023-01-08T01:28:29.034Z,958.31
2023-01-08T01:28:59.988Z,958.31
2023-01-08T01:29:31.990Z,958.52
2023-01-08T01:30:14.563Z,958.41
2023-01-08T01:30:33.124Z,958.41
2023-01-08T01:31:04.071Z,958.72
2023-01-08T01:31:35.012Z,958.72
2023-01-08T01:32:06.023Z,958.52
2023-01-08T01:32:37.095Z,958.52
2023-01-08T01:33:07.996Z,958.41
2023-01-08T01:33:38.985Z,958.41
2023-01-08T01:34:10.046Z,958.41
2023-01-08T01:34:41.967Z,958.41
2023-01-08T01:35:11.984Z,958.41
2023-01-08T01:35:42.974Z,958.41
2023-01-08T01:36:13.995Z,958.41
2023-01-08T01:36:45.035Z,958.41
2023-01-08T01:37:15.958Z,958.82
2023-01-08T01:37:47.026Z,958.82
2023-01-08T01:38:18.019Z,958.62
2023-01-08T01:38:49.001Z,958.62
2023-01-08T01:39:20.110Z,958.41
2023-01-08T01:39:52.102Z,958.41
2023-01-08T01:40:21.991Z,958.52
2023-01-08T01:40:53.031Z,958.52
2023-01-08T01:41:24.020Z,958.62
2023-01-08T01:41:55.022Z,958.62
2023-01-08T01:42:26.039Z,958.31
2023-01-08T01:42:57.004Z,958.31
2023-01-08T01:43:27.964Z,958.31
2023-01-08T01:43:58.960Z,958.31
2023-01-08T01:44:29.977Z,958.41
2023-01-08T01:45:44.306Z,958.41
2023-01-08T01:46:03.135Z,958.31
2023-01-08T01:46:33.993Z,958.31
2023-01-08T01:47:05.047Z,958.52
2023-01-08T01:47:36.036Z,958.52
2023-01-08T01:48:07.015Z,958.52
2023-01-08T01:48:38.000Z,958.52
2023-01-08T01:49:08.975Z,958.41
2023-01-08T01:49:39.983Z,958.41
2023-01-08T01:50:12.036Z,958.31
2023-01-08T01:50:41.970Z,958.31
2023-01-08T01:51:12.991Z,958.31
2023-01-08T01:51:44.241Z,958.31
2023-01-08T01:52:14.970Z,958.41
2023-01-08T01:52:45.965Z,958.41
2023-01-08T01:53:16.976Z,958.41
2023-01-08T01:53:47.983Z,958.41
2023-01-08T01:54:18.982Z,958.11
2023-01-08T01:54:50.048Z,958.11
2023-01-08T01:55:21.962Z,958.41
2023-01-08T01:55:51.986Z,958.41
2023-01-08T01:56:22.970Z,958.41
2023-01-08T01:56:54.024Z,958.41
2023-01-08T01:57:24.975Z,958.31
2023-01-08T01:57:56.014Z,958.31
2023-01-08T01:58:26.982Z,958.41
2023-01-08T01:58:57.964Z,958.41
2023-01-08T01:59:28.971Z,958.41
2023-01-08T02:00:00.024Z,958.41
2023-01-08T02:01:10.710Z,958.41
2023-01-08T02:01:33.405Z,958.52
2023-01-08T02:02:04.357Z,958.52
2023-01-08T02:02:35.074Z,958.52
2023-01-08T02:03:06.391Z,958.41
2023-01-08T02:03:37.084Z,958.41
2023-01-08T02:04:08.146Z,958.41
2023-01-08T02:04:39.082Z,958.41
2023-01-08T02:05:10.154Z,958.41
2023-01-08T02:05:42.045Z,958.41
2023-01-08T02:06:12.298Z,958.52
2023-01-08T02:06:42.991Z,958.52
2023-01-08T02:07:14.198Z,958.31
2023-01-08T02:07:45.051Z,958.31
2023-01-08T02:08:15.967Z,958.41
2023-01-08T02:08:46.997Z,958.41
2023-01-08T02:09:18.015Z,958.72
2023-01-08T02:09:49.028Z,958.72
2023-01-08T02:10:20.111Z,958.41
2023-01-08T02:10:51.953Z,958.41
2023-01-08T02:11:21.961Z,958.72
2023-01-08T02:11:53.006Z,958.72
2023-01-08T02:12:23.977Z,958.82
2023-01-08T02:12:54.972Z,958.82
2023-01-08T02:13:25.987Z,958.52
2023-01-08T02:13:56.981Z,958.52
2023-01-08T02:14:27.978Z,958.62
2023-01-08T02:14:59.035Z,958.62
2023-01-08T02:15:42.444Z,958.41
2023-01-08T02:16:32.034Z,958.52
2023-01-08T02:17:03.114Z,958.52
2023-01-08T02:17:33.998Z,958.52
2023-01-08T02:18:05.043Z,958.41
2023-01-08T02:18:36.006Z,958.41
2023-01-08T02:19:07.021Z,958.52
2023-01-08T02:19:38.042Z,958.52
2023-01-08T02:20:09.261Z,958.31
2023-01-08T02:20:39.970Z,958.31
2023-01-08T02:21:11.999Z,958.21
2023-01-08T02:21:41.992Z,958.21
2023-01-08T02:22:13.176Z,958.41
2023-01-08T02:22:44.070Z,958.41
2023-01-08T02:23:14.998Z,958.21
2023-01-08T02:23:45.966Z,958.21
2023-01-08T02:24:17.114Z,958.11
2023-01-08T02:24:48.070Z,958.11
2023-01-08T02:25:18.980Z,958.41
2023-01-08T02:25:49.996Z,958.41
2023-01-08T02:26:21.948Z,958.31
2023-01-08T02:26:51.999Z,958.31
2023-01-08T02:27:23.021Z,958.31
2023-01-08T02:27:53.968Z,958.31
2023-01-08T02:28:24.963Z,958.11
2023-01-08T02:28:56.069Z,958.11
2023-01-08T02:29:26.965Z,958.11
2023-01-08T02:29:58.006Z,958.11
2023-01-08T02:30:41.658Z,958.21
2023-01-08T02:31:00.105Z,958.21
2023-01-08T02:31:31.993Z,958.11
2023-01-08T02:32:02.035Z,958.01
2023-01-08T02:32:32.962Z,958.01
2023-01-08T02:33:04.123Z,958.21
2023-01-08T02:33:34.999Z,958.21
2023-01-08T02:34:06.046Z,958.01
2023-01-08T02:34:37.051Z,958.01
2023-01-08T02:35:08.009Z,957.94
2023-01-08T02:35:38.970Z,957.94
2023-01-08T02:36:09.957Z,958.31
2023-01-08T02:36:41.960Z,958.31
2023-01-08T02:37:11.997Z,958.11
2023-01-08T02:37:42.963Z,958.11
2023-01-08T02:38:13.966Z,958.01
2023-01-08T02:38:45.034Z,958.01
2023-01-08T02:39:15.957Z,958.11
2023-01-08T02:39:47.191Z,958.11
2023-01-08T02:40:18.086Z,958.11
2023-01-08T02:40:48.959Z,958.11
2023-01-08T02:41:20.005Z,958.21
2023-01-08T02:41:51.949Z,958.21
2023-01-08T02:42:22.014Z,958.11
2023-01-08T02:42:52.970Z,958.11
2023-01-08T02:43:23.973Z,958.21
2023-01-08T02:43:54.946Z,958.21
2023-01-08T02:44:25.996Z,958.11
2023-01-08T02:44:57.021Z,958.11
2023-01-08T02:45:40.309Z,958.11
2023-01-08T02:45:59.098Z,958.11
2023-01-08T02:46:30.014Z,957.94
2023-01-08T02:47:31.966Z,957.84
2023-01-08T02:48:03.071Z,958.01
2023-01-08T02:48:33.956Z,958.01
2023-01-08T02:49:04.995Z,958.11
2023-01-08T02:49:35.955Z,958.11
2023-01-08T02:50:07.177Z,958.11
2023-01-08T02:50:37.967Z,958.11
2023-01-08T02:51:09.010Z,957.94
2023-01-08T02:51:39.948Z,957.94
2023-01-08T02:52:11.941Z,957.74
2023-01-08T02:52:42.163Z,957.74
2023-01-08T02:53:12.965Z,957.74
2023-01-08T02:53:43.963Z,957.74
2023-01-08T02:54:15.055Z,957.94
2023-01-08T02:54:46.012Z,957.94
2023-01-08T02:55:16.961Z,957.74
2023-01-08T02:55:47.947Z,957.74
2023-01-08T02:56:19.051Z,958.01
2023-01-08T02:56:49.964Z,958.01
2023-01-08T02:57:22.004Z,958.01
2023-01-08T02:57:51.952Z,958.01
2023-01-08T02:58:22.974Z,957.74
2023-01-08T02:58:54.067Z,957.74
2023-01-08T02:59:24.937Z,958.01
2023-01-08T02:59:56.154Z,958.01
2023-01-08T03:00:39.375Z,957.94
2023-01-08T03:00:58.012Z,957.94
2023-01-08T03:01:29.224Z,957.94
2023-01-08T03:02:00.082Z,957.94
2023-01-08T03:02:32.156Z,957.94
2023-01-08T03:03:02.269Z,957.94
2023-01-08T03:03:32.960Z,957.94
2023-01-08T03:04:04.188Z,957.94
2023-01-08T03:04:34.989Z,957.94
2023-01-08T03:05:05.968Z,957.94
2023-01-08T03:05:36.952Z,957.94
2023-01-08T03:06:07.975Z,958.01
2023-01-08T03:06:38.966Z,958.01
2023-01-08T03:07:09.984Z,957.84
2023-01-08T03:07:41.994Z,957.84
2023-01-08T03:08:11.945Z,957.74
2023-01-08T03:08:42.960Z,957.74
2023-01-08T03:09:14.098Z,957.94
2023-01-08T03:09:44.962Z,957.94
2023-01-08T03:10:15.975Z,957.94
2023-01-08T03:10:46.944Z,957.94
2023-01-08T03:11:18.008Z,957.84
2023-01-08T03:11:49.038Z,957.84
2023-01-08T03:12:19.958Z,957.94
2023-01-08T03:12:51.942Z,957.94
2023-01-08T03:13:21.934Z,957.74
2023-01-08T03:13:52.954Z,957.74
2023-01-08T03:14:23.948Z,958.01
2023-01-08T03:14:54.985Z,958.01
2023-01-08T03:15:38.309Z,957.74
2023-01-08T03:15:56.943Z,957.74
2023-01-08T03:16:28.070Z,957.84
2023-01-08T03:16:59.063Z,957.84
2023-01-08T03:17:29.963Z,957.84
2023-01-08T03:18:31.947Z,957.84
2023-01-08T03:19:02.988Z,957.74
2023-01-08T03:19:33.950Z,957.74
2023-01-08T03:20:05.110Z,957.64
2023-01-08T03:20:36.003Z,957.64
2023-01-08T03:21:07.019Z,957.74
2023-01-08T03:21:38.011Z,957.74
2023-01-08T03:22:08.974Z,957.94
2023-01-08T03:22:39.962Z,957.94
2023-01-08T03:23:11.953Z,957.94
2023-01-08T03:23:41.943Z,957.94
2023-01-08T03:24:12.996Z,957.84
2023-01-08T03:24:43.973Z,957.84
2023-01-08T03:25:14.978Z,957.84
2023-01-08T03:25:46.000Z,957.84
2023-01-08T03:26:16.969Z,957.94
2023-01-08T03:26:48.289Z,957.94
2023-01-08T03:27:18.942Z,957.64
2023-01-08T03:27:49.972Z,957.64
2023-01-08T03:28:21.947Z,957.74
2023-01-08T03:28:52.001Z,957.74
2023-01-08T03:29:22.936Z,957.94
2023-01-08T03:29:54.044Z,957.94
2023-01-08T03:30:37.417Z,957.84
2023-01-08T03:30:55.974Z,957.84
2023-01-08T03:31:27.013Z,957.94
2023-01-08T03:31:57.947Z,957.94
2023-01-08T03:32:28.953Z,958.11
2023-01-08T03:32:59.947Z,958.11
2023-01-08T03:33:31.988Z,957.94
2023-01-08T03:34:02.024Z,957.64
2023-01-08T03:34:32.944Z,957.64
2023-01-08T03:35:04.134Z,957.94
2023-01-08T03:35:34.961Z,957.94
2023-01-08T03:36:05.956Z,957.94
2023-01-08T03:36:36.941Z,957.94
2023-01-08T03:37:08.002Z,957.74
2023-01-08T03:37:38.956Z,957.74
2023-01-08T03:38:09.928Z,957.84
2023-01-08T03:38:41.941Z,957.84
2023-01-08T03:39:11.941Z,957.64
2023-01-08T03:39:42.938Z,957.64
2023-01-08T03:40:13.976Z,957.74
2023-01-08T03:40:45.021Z,957.74
2023-01-08T03:41:15.950Z,957.84
2023-01-08T03:41:46.943Z,957.84
2023-01-08T03:42:17.945Z,957.84
2023-01-08T03:42:49.070Z,957.84
2023-01-08T03:43:19.941Z,957.84
2023-01-08T03:43:51.935Z,957.84
2023-01-08T03:44:21.925Z,957.84
2023-01-08T03:44:52.938Z,957.84
2023-01-08T03:45:36.270Z,957.74
2023-01-08T03:45:55.072Z,957.74
2023-01-08T03:46:28.061Z,957.84
2023-01-08T03:46:56.952Z,957.84
2023-01-08T03:47:27.997Z,957.74
2023-01-08T03:47:59.064Z,957.74
2023-01-08T03:48:29.940Z,957.94
2023-01-08T03:49:31.945Z,957.74
2023-01-08T03:50:03.028Z,957.74
2023-01-08T03:50:33.986Z,957.74
2023-01-08T03:51:05.046Z,957.84
2023-01-08T03:51:35.931Z,957.84
2023-01-08T03:52:06.977Z,957.74
2023-01-08T03:52:37.995Z,957.74
2023-01-08T03:53:08.942Z,957.74
2023-01-08T03:53:39.948Z,957.74
2023-01-08T03:54:11.938Z,957.74
2023-01-08T03:54:41.933Z,957.74
2023-01-08T03:55:12.941Z,957.74
2023-01-08T03:55:44.026Z,957.74
2023-01-08T03:56:14.984Z,957.53
2023-01-08T03:56:45.942Z,957.53
2023-01-08T03:57:17.024Z,957.43
2023-01-08T03:57:47.954Z,957.43
2023-01-08T03:58:18.927Z,957.64
2023-01-08T03:58:49.993Z,957.64
2023-01-08T03:59:21.958Z,957.53
2023-01-08T03:59:51.932Z,957.53
2023-01-08T04:00:35.334Z,957.53
2023-01-08T04:00:53.988Z,957.53
2023-01-08T04:01:25.091Z,957.53
2023-01-08T04:01:56.204Z,957.53
2023-01-08T04:02:27.146Z,957.53
2023-01-08T04:02:57.949Z,957.53
2023-01-08T04:03:29.030Z,957.53
2023-01-08T04:04:00.019Z,957.53
2023-01-08T04:04:32.021Z,957.53
2023-01-08T04:05:02.044Z,957.53
2023-01-08T04:05:32.974Z,957.53
2023-01-08T04:06:03.959Z,957.23
2023-01-08T04:06:34.954Z,957.23
2023-01-08T04:07:06.015Z,957.23
2023-01-08T04:07:36.999Z,957.23
2023-01-08T04:08:07.974Z,957.33
2023-01-08T04:08:38.956Z,957.33
2023-01-08T04:09:09.968Z,957.43
2023-01-08T04:09:42.011Z,957.43
2023-01-08T04:10:11.945Z,957.33
2023-01-08T04:10:42.965Z,957.33
2023-01-08T04:11:13.933Z,957.13
2023-01-08T04:11:44.958Z,957.13
2023-01-08T04:12:16.001Z,957.23
2023-01-08T04:12:46.967Z,957.23
2023-01-08T04:13:18.167Z,957.03
2023-01-08T04:13:48.943Z,957.03
2023-01-08T04:14:19.971Z,956.92
2023-01-08T04:14:51.925Z,956.92
2023-01-08T04:15:34.282Z,957.23
2023-01-08T04:15:53.030Z,957.23
2023-01-08T04:16:23.972Z,957.13
2023-01-08T04:16:54.991Z,957.13
2023-01-08T04:17:25.928Z,957.03
2023-01-08T04:17:57.005Z,957.03
2023-01-08T04:18:27.928Z,956.92
2023-01-08T04:18:59.039Z,956.92
2023-01-08T04:19:29.947Z,956.92
2023-01-08T04:20:31.946Z,956.92
2023-01-08T04:21:02.969Z,956.82
2023-01-08T04:21:33.951Z,956.82
2023-01-08T04:22:05.041Z,957.03
2023-01-08T04:22:35.928Z,957.03
2023-01-08T04:23:06.980Z,957.13
2023-01-08T04:23:37.940Z,957.13
2023-01-08T04:24:08.926Z,956.92
2023-01-08T04:24:39.974Z,956.92
2023-01-08T04:25:11.926Z,957.03
2023-01-08T04:25:41.983Z,957.03
2023-01-08T04:26:12.951Z,956.92
2023-01-08T04:26:43.965Z,956.92
2023-01-08T04:27:14.921Z,956.92
2023-01-08T04:27:45.950Z,956.92
2023-01-08T04:28:17.106Z,957.13
2023-01-08T04:28:47.998Z,957.13
2023-01-08T04:29:18.982Z,956.92
2023-01-08T04:29:50.016Z,956.92
2023-01-08T04:30:34.326Z,957.03
2023-01-08T04:30:52.019Z,957.03
2023-01-08T04:31:23.049Z,956.82
2023-01-08T04:31:54.057Z,956.82
2023-01-08T04:32:24.973Z,957.03
2023-01-08T04:32:56.017Z,957.03
2023-01-08T04:33:26.933Z,957.13
2023-01-08T04:33:57.967Z,957.13
2023-01-08T04:34:28.997Z,957.03
2023-01-08T04:34:59.934Z,957.03
2023-01-08T04:35:31.986Z,956.82
2023-01-08T04:36:02.072Z,957.03
2023-01-08T04:36:32.918Z,957.03
2023-01-08T04:37:04.283Z,957.03
2023-01-08T04:37:35.028Z,957.03
2023-01-08T04:38:05.944Z,956.92
2023-01-08T04:38:36.934Z,956.92
2023-01-08T04:39:07.921Z,956.92
2023-01-08T04:39:38.929Z,956.92
2023-01-08T04:40:09.977Z,957.03
2023-01-08T04:40:41.924Z,957.03
2023-01-08T04:41:11.918Z,957.03
2023-01-08T04:41:42.908Z,957.03
2023-01-08T04:42:13.967Z,956.92
2023-01-08T04:42:44.919Z,956.92
2023-01-08T04:43:15.923Z,956.92
2023-01-08T04:43:46.965Z,956.92
2023-01-08T04:44:17.922Z,956.92
2023-01-08T04:44:48.918Z,956.92
2023-01-08T04:45:32.298Z,956.62
2023-01-08T04:45:51.929Z,956.62
2023-01-08T04:46:22.036Z,956.92
2023-01-08T04:46:52.965Z,956.92
2023-01-08T04:47:23.933Z,956.82
2023-01-08T04:47:54.975Z,956.82
2023-01-08T04:48:25.978Z,957.13
2023-01-08T04:48:57.048Z,957.13
2023-01-08T04:49:27.951Z,956.92
2023-01-08T04:49:59.010Z,956.92
2023-01-08T04:50:29.922Z,956.82
2023-01-08T04:51:31.923Z,956.92
2023-01-08T04:52:02.990Z,956.72
2023-01-08T04:52:33.924Z,956.72
2023-01-08T04:53:04.962Z,956.92
2023-01-08T04:53:36.087Z,956.92
2023-01-08T04:54:06.953Z,956.72
2023-01-08T04:54:37.936Z,956.72
2023-01-08T04:55:08.954Z,956.92
2023-01-08T04:55:40.031Z,956.92
2023-01-08T04:56:11.936Z,956.92
2023-01-08T04:56:41.921Z,956.92
2023-01-08T04:57:12.979Z,957.03
2023-01-08T04:57:43.964Z,957.03
2023-01-08T04:58:14.982Z,957.03
2023-01-08T04:58:45.932Z,957.03
2023-01-08T04:59:16.918Z,956.92
2023-01-08T04:59:47.928Z,956.92
2023-01-08T05:00:31.274Z,956.82
2023-01-08T05:00:50.015Z,956.82
2023-01-08T05:01:22.168Z,956.92
2023-01-08T05:01:52.058Z,956.92
2023-01-08T05:02:23.128Z,956.82
2023-01-08T05:02:54.224Z,956.82
2023-01-08T05:03:24.973Z,956.92
2023-01-08T05:03:55.904Z,956.92
2023-01-08T05:04:26.917Z,956.82
2023-01-08T05:04:57.950Z,956.82
2023-01-08T05:05:28.996Z,957.03
2023-01-08T05:05:59.918Z,957.03
2023-01-08T05:06:31.927Z,957.03
2023-01-08T05:07:02.105Z,956.92
2023-01-08T05:07:32.915Z,956.92
2023-01-08T05:08:03.988Z,957.03
2023-01-08T05:08:35.083Z,957.03
2023-01-08T05:09:05.929Z,956.82
2023-01-08T05:09:36.926Z,956.82
2023-01-08T05:10:07.934Z,956.92
2023-01-08T05:10:38.965Z,956.92
2023-01-08T05:11:09.956Z,957.03
2023-01-08T05:11:41.955Z,957.03
2023-01-08T05:12:11.940Z,956.82
2023-01-08T05:12:42.975Z,956.82
2023-01-08T05:13:14.318Z,957.03
2023-01-08T05:13:45.114Z,957.03
2023-01-08T05:14:15.974Z,956.82
2023-01-08T05:14:46.931Z,956.82
2023-01-08T05:15:30.398Z,957.13
2023-01-08T05:15:48.943Z,957.13
2023-01-08T05:16:20.102Z,956.82
2023-01-08T05:16:51.913Z,956.82
2023-01-08T05:17:21.968Z,956.92
2023-01-08T05:17:52.948Z,956.92
2023-01-08T05:18:23.984Z,956.72
2023-01-08T05:18:54.918Z,956.72
2023-01-08T05:19:25.947Z,956.92
2023-01-08T05:19:57.002Z,956.92
2023-01-08T05:20:27.973Z,956.92
2023-01-08T05:20:58.969Z,956.92
2023-01-08T05:21:29.939Z,956.72
2023-01-08T05:22:31.907Z,956.92
2023-01-08T05:23:02.963Z,956.82
2023-01-08T05:23:33.913Z,956.82
2023-01-08T05:24:04.994Z,956.72
2023-01-08T05:24:35.915Z,956.72
2023-01-08T05:25:06.930Z,956.72
2023-01-08T05:25:37.917Z,956.72
2023-01-08T05:26:08.975Z,957.03
2023-01-08T05:26:39.958Z,957.03
2023-01-08T05:27:11.949Z,956.62
2023-01-08T05:27:41.941Z,956.62
2023-01-08T05:28:12.964Z,956.82
2023-01-08T05:28:44.052Z,956.82
2023-01-08T05:29:14.936Z,956.52
2023-01-08T05:29:45.918Z,956.52
2023-01-08T05:30:29.708Z,956.62
2023-01-08T05:30:47.957Z,956.62
2023-01-08T05:31:19.088Z,956.92
2023-01-08T05:31:49.980Z,956.92
2023-01-08T05:32:21.922Z,956.82
2023-01-08T05:32:51.923Z,956.82
2023-01-08T05:33:22.943Z,956.72
2023-01-08T05:33:53.912Z,956.72
2023-01-08T05:34:24.923Z,956.62
2023-01-08T05:34:55.949Z,956.62
2023-01-08T05:35:26.988Z,956.52
2023-01-08T05:35:57.932Z,956.52
2023-01-08T05:36:28.934Z,956.62
2023-01-08T05:36:59.917Z,956.62
2023-01-08T05:37:31.911Z,956.72
2023-01-08T05:38:02.053Z,956.82
2023-01-08T05:38:32.900Z,956.82
2023-01-08T05:39:03.984Z,956.72
2023-01-08T05:39:34.961Z,956.72
2023-01-08T05:40:05.958Z,956.62
2023-01-08T05:40:36.931Z,956.62
2023-01-08T05:41:08.019Z,956.62
2023-01-08T05:41:39.086Z,956.62
2023-01-08T05:42:10.009Z,956.52
2023-01-08T05:42:41.908Z,956.52
2023-01-08T05:43:11.906Z,956.82
2023-01-08T05:43:42.956Z,956.82
2023-01-08T05:44:13.926Z,956.82
2023-01-08T05:44:44.905Z,956.82
2023-01-08T05:45:28.229Z,956.82
2023-01-08T05:45:46.916Z,956.82
2023-01-08T05:46:18.036Z,956.82
2023-01-08T05:46:48.921Z,956.82
2023-01-08T05:47:19.956Z,956.72
2023-01-08T05:47:51.953Z,956.72
2023-01-08T05:48:21.919Z,956.92
2023-01-08T05:48:52.901Z,956.92
2023-01-08T05:49:23.933Z,956.72
2023-01-08T05:49:54.906Z,956.72
2023-01-08T05:50:25.929Z,956.72
2023-01-08T05:50:56.897Z,956.72
2023-01-08T05:51:28.000Z,956.72
2023-01-08T05:51:58.907Z,956.72
2023-01-08T05:52:30.015Z,956.82
2023-01-08T05:53:31.905Z,956.62
2023-01-08T05:54:02.990Z,956.72
2023-01-08T05:54:33.903Z,956.72
2023-01-08T05:55:04.984Z,956.92
2023-01-08T05:55:35.914Z,956.92
2023-01-08T05:56:09.034Z,956.82
2023-01-08T05:56:37.944Z,956.82
2023-01-08T05:57:08.953Z,956.82
2023-01-08T05:57:39.934Z,956.82
2023-01-08T05:58:11.908Z,957.03
2023-01-08T05:58:41.919Z,957.03
2023-01-08T05:59:12.894Z,956.82
2023-01-08T05:59:43.951Z,956.82
2023-01-08T06:00:27.271Z,956.82
2023-01-08T06:00:45.955Z,956.82
2023-01-08T06:01:16.957Z,957.03
2023-01-08T06:01:48.017Z,957.03
2023-01-08T06:02:18.954Z,956.82
2023-01-08T06:02:50.027Z,956.82
2023-01-08T06:03:21.899Z,956.72
2023-01-08T06:03:51.931Z,956.72
2023-01-08T06:04:23.052Z,956.62
2023-01-08T06:04:53.900Z,956.62
2023-01-08T06:05:24.919Z,956.82
2023-01-08T06:05:55.902Z,956.82
2023-01-08T06:06:26.908Z,956.92
2023-01-08T06:06:57.962Z,956.92
2023-01-08T06:07:28.900Z,956.82
2023-01-08T06:08:00.013Z,956.82
2023-01-08T06:08:31.900Z,956.92
2023-01-08T06:09:02.130Z,956.92
2023-01-08T06:09:32.900Z,956.92
2023-01-08T06:10:03.930Z,956.82
2023-01-08T06:10:35.020Z,956.82
2023-01-08T06:11:05.930Z,956.92
2023-01-08T06:11:37.121Z,956.92
2023-01-08T06:12:07.903Z,956.82
2023-01-08T06:12:38.907Z,956.82
2023-01-08T06:13:09.932Z,956.92
2023-01-08T06:13:41.908Z,956.92
2023-01-08T06:14:11.993Z,957.13
2023-01-08T06:14:42.911Z,957.13
2023-01-08T06:15:26.394Z,956.82
2023-01-08T06:15:44.967Z,956.82
2023-01-08T06:16:15.954Z,956.82
2023-01-08T06:16:46.933Z,956.82
2023-01-08T06:17:17.899Z,956.72
2023-01-08T06:17:48.904Z,956.72
2023-01-08T06:18:19.900Z,956.82
2023-01-08T06:18:51.908Z,956.82
2023-01-08T06:19:21.941Z,957.03
2023-01-08T06:19:52.909Z,957.03
2023-01-08T06:20:23.970Z,956.92
2023-01-08T06:20:54.893Z,956.92
2023-01-08T06:21:25.880Z,957.03
2023-01-08T06:21:56.879Z,957.03
2023-01-08T06:22:27.901Z,956.62
2023-01-08T06:22:58.891Z,956.62
2023-01-08T06:23:29.898Z,956.92
2023-01-08T06:24:31.885Z,956.72
2023-01-08T06:25:03.001Z,956.62
2023-01-08T06:25:33.908Z,956.62
2023-01-08T06:26:04.979Z,956.92
2023-01-08T06:26:35.904Z,956.92
2023-01-08T06:27:06.906Z,956.92
2023-01-08T06:27:40.422Z,956.92
2023-01-08T06:28:08.911Z,956.52
2023-01-08T06:28:39.953Z,956.52
2023-01-08T06:29:12.008Z,956.72
2023-01-08T06:29:41.899Z,956.72
2023-01-08T06:30:25.258Z,956.72
2023-01-08T06:30:43.926Z,956.72
2023-01-08T06:31:14.959Z,956.72
2023-01-08T06:31:46.051Z,956.72
2023-01-08T06:32:16.894Z,956.52
2023-01-08T06:32:47.971Z,956.52
2023-01-08T06:33:21.068Z,956.72
2023-01-08T06:33:50.046Z,956.72